ADDS METAR Data INFO
IDs: Format: Raw Decoded Include TAF

Data at: 1021 UTC 20 Jul 2018

METAR for:KLOU (Louisville/Bowman Fl, KY, US)
Text:KLOU 200953Z AUTO 31006KT 10SM -TSRA FEW035 BKN055 OVC070 23/21 A2991 RMK AO2 LTG DSNT ALQDS RAB0859E09B51 TSB0858E19B26E41B49 SLP122 P0000 T02280211 $
Temperature: 22.8°C ( 73°F)
Dewpoint: 21.1°C ( 70°F) [RH = 90%]
Pressure (altimeter):29.91 inches Hg (1013.0 mb) [Sea level pressure: 1012.2 mb]
Winds:from the NW (310 degrees) at 7 MPH (6 knots; 3.1 m/s)
Visibility:10 or more sm (16+ km)
Ceiling:5500 feet AGL
Clouds: few clouds at 3500 feet AGL, broken clouds at 5500 feet AGL, overcast cloud deck at 7000 feet AGL
Weather:-TSRA (light rain associated with thunderstorm(s))
QC Flag:automated observation with no human augmentation; SOME DATA ABOVE MAY BE INACCURATE!!!"$" is an indication the sensor requires maintenance.